createdAt,value
2023-01-20T00:03:24.843Z,1.87
2023-01-20T00:08:26.565Z,1.87
2023-01-20T00:13:29.131Z,1.86
2023-01-20T00:18:32.151Z,1.78
2023-01-20T00:23:34.259Z,1.78
2023-01-20T00:28:36.346Z,1.60
2023-01-20T00:33:38.101Z,1.52
2023-01-20T00:38:39.984Z,1.56
2023-01-20T00:43:42.473Z,1.63
2023-01-20T00:48:44.087Z,1.68
2023-01-20T00:53:45.848Z,1.72
2023-01-20T00:58:47.587Z,1.75
2023-01-20T01:03:49.304Z,1.70
2023-01-20T01:08:51.078Z,1.64
2023-01-20T01:13:55.748Z,1.66
2023-01-20T01:18:57.462Z,1.69
2023-01-20T01:23:59.593Z,1.65
2023-01-20T01:29:01.405Z,1.66
2023-01-20T01:34:03.062Z,1.61
2023-01-20T01:39:04.909Z,1.54
2023-01-20T01:44:06.787Z,1.44
2023-01-20T01:49:14.160Z,1.40
2023-01-20T01:54:21.917Z,1.39
2023-01-20T01:59:23.581Z,1.13
2023-01-20T02:04:27.948Z,0.97
2023-01-20T02:09:30.779Z,0.90
2023-01-20T02:14:41.286Z,0.83
2023-01-20T02:20:14.183Z,0.89
2023-01-20T02:25:29.430Z,0.97
2023-01-20T02:31:08.769Z,0.99
2023-01-20T02:36:15.254Z,0.89
2023-01-20T02:41:35.259Z,0.80
2023-01-20T02:46:43.712Z,0.81
2023-01-20T02:52:01.908Z,0.92
2023-01-20T02:57:09.119Z,0.95
2023-01-20T03:02:16.130Z,0.88
2023-01-20T03:07:21.818Z,0.89
2023-01-20T03:12:54.143Z,0.87
2023-01-20T03:17:58.583Z,0.87
2023-01-20T03:23:02.329Z,0.84
2023-01-20T03:28:04.205Z,0.86
2023-01-20T03:33:06.230Z,0.85
2023-01-20T03:38:08.891Z,0.84
2023-01-20T03:43:22.798Z,0.85
2023-01-20T03:48:30.567Z,0.82
2023-01-20T03:54:09.613Z,0.86
2023-01-20T03:59:14.556Z,0.86
2023-01-20T04:04:19.096Z,0.81
2023-01-20T04:09:26.858Z,0.74
2023-01-20T04:14:28.508Z,0.76
2023-01-20T04:19:30.438Z,0.64
2023-01-20T04:24:40.551Z,0.50
2023-01-20T04:29:42.892Z,0.52
2023-01-20T04:34:44.666Z,0.57
2023-01-20T04:39:46.337Z,0.60
2023-01-20T04:44:48.231Z,0.52
2023-01-20T04:49:50.223Z,0.42
2023-01-20T04:54:51.817Z,0.48
2023-01-20T04:59:53.464Z,0.55
2023-01-20T05:04:55.202Z,0.55
2023-01-20T05:09:57.024Z,0.41
2023-01-20T05:14:58.628Z,0.56
2023-01-20T05:20:00.417Z,0.66
2023-01-20T05:25:02.046Z,0.67
2023-01-20T05:30:06.235Z,0.61
2023-01-20T05:35:08.754Z,0.65
2023-01-20T05:40:11.376Z,0.71
2023-01-20T05:45:13.686Z,0.77
2023-01-20T05:50:15.864Z,0.73
2023-01-20T05:55:17.583Z,0.70
2023-01-20T06:00:19.909Z,0.75
2023-01-20T06:05:22.420Z,0.68
2023-01-20T06:10:30.664Z,0.67
2023-01-20T06:15:32.327Z,0.60
2023-01-20T06:20:34.025Z,0.64
2023-01-20T06:25:35.735Z,0.73
2023-01-20T06:30:38.116Z,1.29
2023-01-20T06:35:39.898Z,1.25
2023-01-20T06:40:41.548Z,1.20
2023-01-20T06:45:43.216Z,1.17
2023-01-20T06:50:44.906Z,1.13
2023-01-20T06:55:54.122Z,1.11
2023-01-20T07:00:56.830Z,1.15
2023-01-20T07:06:00.954Z,1.20
2023-01-20T07:11:02.663Z,1.19
2023-01-20T07:16:05.773Z,1.16
2023-01-20T07:21:11.619Z,1.20
2023-01-20T07:26:16.415Z,1.28
2023-01-20T07:31:21.554Z,1.40
2023-01-20T07:36:23.824Z,1.41
2023-01-20T07:41:25.799Z,1.42
2023-01-20T07:46:27.577Z,1.37
2023-01-20T07:51:29.312Z,1.34
2023-01-20T07:56:31.048Z,1.31
2023-01-20T08:01:33.194Z,1.30
2023-01-20T08:06:35.027Z,1.28
2023-01-20T08:11:36.788Z,1.21
2023-01-20T08:16:38.671Z,1.22
2023-01-20T08:21:40.324Z,1.15
2023-01-20T08:26:42.288Z,1.01
2023-01-20T08:31:44.098Z,1.00
2023-01-20T08:36:45.831Z,1.00
2023-01-20T08:41:48.359Z,1.03
2023-01-20T08:46:52.652Z,1.03
2023-01-20T08:51:55.354Z,0.95
2023-01-20T08:56:56.908Z,1.14
2023-01-20T09:01:58.515Z,1.27
2023-01-20T09:07:00.269Z,1.15
2023-01-20T09:12:03.344Z,1.08
2023-01-20T09:17:05.223Z,1.15
2023-01-20T09:22:06.934Z,1.25
2023-01-20T09:27:08.778Z,1.25
2023-01-20T09:32:12.958Z,1.18
2023-01-20T09:37:33.491Z,1.15
2023-01-20T09:43:23.550Z,1.11
2023-01-20T09:49:06.267Z,1.16
2023-01-20T09:54:23.412Z,1.27
2023-01-20T09:59:32.996Z,1.38
2023-01-20T10:04:46.695Z,1.24
2023-01-20T10:10:00.854Z,1.20
2023-01-20T10:15:15.787Z,1.31
2023-01-20T10:20:28.127Z,1.42
2023-01-20T10:25:33.500Z,1.51
2023-01-20T10:30:36.487Z,1.59
2023-01-20T10:35:48.019Z,1.57
2023-01-20T10:40:57.179Z,1.63
2023-01-20T10:46:01.836Z,1.61
2023-01-20T10:51:48.588Z,1.69
2023-01-20T10:56:55.570Z,1.73
2023-01-20T11:02:11.961Z,1.64
2023-01-20T11:07:18.925Z,1.76
2023-01-20T11:12:25.600Z,1.82
2023-01-20T11:17:27.332Z,1.85
2023-01-20T11:22:31.906Z,1.81
2023-01-20T11:27:45.839Z,1.71
2023-01-20T11:33:06.547Z,1.75
2023-01-20T11:38:26.139Z,1.85
2023-01-20T11:43:35.387Z,1.87
2023-01-20T11:48:37.092Z,1.91
2023-01-20T11:53:39.236Z,2.03
2023-01-20T11:58:55.371Z,2.01
2023-01-20T12:04:27.576Z,2.13
2023-01-20T12:09:40.051Z,2.12
2023-01-20T12:14:57.618Z,2.11
2023-01-20T12:20:10.829Z,2.11
2023-01-20T12:25:27.678Z,2.07
2023-01-20T12:30:47.782Z,2.04
2023-01-20T12:36:04.431Z,2.03
2023-01-20T12:41:13.488Z,2.05
2023-01-20T12:46:38.322Z,2.10
2023-01-20T12:52:00.950Z,2.17
2023-01-20T12:57:25.453Z,2.18
2023-01-20T13:02:58.545Z,2.18
2023-01-20T13:08:09.532Z,2.16
2023-01-20T13:13:29.739Z,2.19
2023-01-20T13:18:43.856Z,2.19
2023-01-20T13:23:47.075Z,2.17
2023-01-20T13:28:56.691Z,2.24
2023-01-20T13:34:23.480Z,2.24
2023-01-20T13:39:42.992Z,2.39
2023-01-20T13:44:45.697Z,2.41
2023-01-20T13:49:52.198Z,2.42
2023-01-20T13:54:53.874Z,2.45
2023-01-20T13:59:56.157Z,2.47
2023-01-20T14:04:58.748Z,2.41
2023-01-20T14:10:01.662Z,2.32
2023-01-20T14:15:03.670Z,2.27
2023-01-20T14:20:23.503Z,2.24
2023-01-20T14:25:26.827Z,2.30
2023-01-20T14:30:28.493Z,2.27
2023-01-20T14:35:33.484Z,2.30
2023-01-20T14:40:35.853Z,2.28
2023-01-20T14:45:37.935Z,2.39
2023-01-20T14:50:41.360Z,2.43
2023-01-20T14:55:56.218Z,2.43
2023-01-20T15:01:04.238Z,2.43
2023-01-20T15:06:09.248Z,2.39
2023-01-20T15:11:14.486Z,2.44
2023-01-20T15:16:46.659Z,2.46
2023-01-20T15:21:53.970Z,2.52
2023-01-20T15:26:58.187Z,2.60
2023-01-20T15:32:10.909Z,2.62
2023-01-20T15:37:17.057Z,2.60
2023-01-20T15:42:19.095Z,2.65
2023-01-20T15:47:27.127Z,2.65
2023-01-20T15:52:32.253Z,2.65
2023-01-20T15:57:34.063Z,2.62
2023-01-20T16:02:35.827Z,2.60
2023-01-20T16:07:38.521Z,2.49
2023-01-20T16:12:40.102Z,2.40
2023-01-20T16:17:42.448Z,2.33
2023-01-20T16:22:44.107Z,2.35
2023-01-20T16:27:45.992Z,2.35
2023-01-20T16:32:47.929Z,2.34
2023-01-20T16:37:49.722Z,2.34
2023-01-20T16:42:54.381Z,2.43
2023-01-20T16:47:56.913Z,2.40
2023-01-20T16:53:01.417Z,2.34
2023-01-20T16:58:03.105Z,2.18
2023-01-20T17:03:05.405Z,2.10
2023-01-20T17:08:07.188Z,2.07
2023-01-20T17:13:08.864Z,2.06
2023-01-20T17:18:10.573Z,1.97
2023-01-20T17:23:12.860Z,1.91
2023-01-20T17:28:14.669Z,1.92
2023-01-20T17:33:16.360Z,1.92
2023-01-20T17:38:18.154Z,1.88
2023-01-20T17:43:19.964Z,1.84
2023-01-20T17:48:21.809Z,1.89
2023-01-20T17:53:23.630Z,1.95
2023-01-20T17:58:25.342Z,1.98
2023-01-20T18:03:27.032Z,1.93
2023-01-20T18:08:28.697Z,1.88
2023-01-20T18:13:30.419Z,1.90
2023-01-20T18:18:32.094Z,1.90
2023-01-20T18:23:33.866Z,1.88
2023-01-20T18:28:36.216Z,1.87
2023-01-20T18:33:43.401Z,1.94
2023-01-20T18:38:49.676Z,1.96
2023-01-20T18:43:51.495Z,1.96
2023-01-20T18:48:54.583Z,1.87
2023-01-20T18:54:02.245Z,1.72
2023-01-20T18:59:05.454Z,1.66
2023-01-20T19:04:09.164Z,1.64
2023-01-20T19:09:11.650Z,1.60
2023-01-20T19:14:15.293Z,1.56
2023-01-20T19:19:20.017Z,1.53
2023-01-20T19:24:21.892Z,1.51
2023-01-20T19:29:23.630Z,1.44
2023-01-20T19:34:25.375Z,1.44
2023-01-20T19:39:27.598Z,1.49
2023-01-20T19:44:29.366Z,1.60
2023-01-20T19:49:31.234Z,1.64
2023-01-20T19:54:33.747Z,1.69
2023-01-20T19:59:35.767Z,1.75
2023-01-20T20:04:37.592Z,1.74
2023-01-20T20:09:39.278Z,1.76
2023-01-20T20:14:40.968Z,1.77
2023-01-20T20:19:42.595Z,1.73
2023-01-20T20:24:44.630Z,1.56
2023-01-20T20:29:46.316Z,1.57
2023-01-20T20:34:48.039Z,1.64
2023-01-20T20:39:49.750Z,1.68
2023-01-20T20:44:51.558Z,1.60
2023-01-20T20:49:53.216Z,1.41
2023-01-20T20:54:56.066Z,1.28
2023-01-20T20:59:59.668Z,1.18
2023-01-20T21:05:01.821Z,1.12
2023-01-20T21:10:04.957Z,1.02
2023-01-20T21:15:07.416Z,0.93
2023-01-20T21:20:10.290Z,0.96
2023-01-20T21:25:11.877Z,0.96
2023-01-20T21:30:13.784Z,0.88
2023-01-20T21:35:15.406Z,0.88
2023-01-20T21:40:17.509Z,0.94
2023-01-20T21:45:19.496Z,0.89
2023-01-20T21:50:39.773Z,0.82
2023-01-20T21:55:41.787Z,0.76
2023-01-20T22:00:43.703Z,0.78
2023-01-20T22:05:45.546Z,0.83
2023-01-20T22:10:55.513Z,0.87
2023-01-20T22:16:01.737Z,0.98
2023-01-20T22:21:05.499Z,1.09
2023-01-20T22:26:07.143Z,1.14
2023-01-20T22:31:11.873Z,1.03
2023-01-20T22:36:13.774Z,1.03
2023-01-20T22:41:15.924Z,1.10
2023-01-20T22:46:20.502Z,1.10
2023-01-20T22:51:24.876Z,0.98
2023-01-20T22:56:29.460Z,0.88
2023-01-20T23:01:33.553Z,0.74
2023-01-20T23:06:36.492Z,0.64
2023-01-20T23:11:39.876Z,0.56
2023-01-20T23:16:42.714Z,0.48
2023-01-20T23:21:44.571Z,0.48
2023-01-20T23:26:46.223Z,0.38
2023-01-20T23:31:47.983Z,0.28
2023-01-20T23:36:49.703Z,0.27
2023-01-20T23:41:51.527Z,0.39
2023-01-20T23:46:53.126Z,0.46
2023-01-20T23:51:55.072Z,0.49
2023-01-20T23:56:56.760Z,0.45
